Time;durP1;ratioP1;P1;durP2;ratioP2;P2;SDS_P1;SDS_P2;PMS_P1;PMS_P2;Temp;Humidity;BMP_temperature;BMP_pressure;BME280_temperature;BME280_humidity;BME280_pressure;Samples;Min_cycle;Max_cycle;Signal;HPM_P1;HPM_P2
2021/05/23 00:00:29;;;;;;;7.10;5.82;;;486.40;2150.40;;;;;;5072627;28;20084;-78
2021/05/23 00:02:57;;;;;;;9.40;6.00;;;486.40;2176.00;;;;;;5072774;28;20020;-79
2021/05/23 00:05:27;;;;;;;6.43;5.82;;;486.40;2176.00;;;;;;5074044;28;20025;-78
2021/05/23 00:07:56;;;;;;;10.50;6.32;;;486.40;2176.00;;;;;;5071711;28;20514;-78
2021/05/23 00:10:24;;;;;;;10.68;5.97;;;486.40;2150.40;;;;;;5072275;28;20127;-78
2021/05/23 00:12:51;;;;;;;8.55;6.78;;;486.40;2176.00;;;;;;5073775;28;20487;-78
2021/05/23 00:15:42;;;;;;;10.93;6.35;;;461.70;2176.00;;;;;;5072209;28;20024;-78
2021/05/23 00:18:09;;;;;;;7.22;5.40;;;461.70;2176.00;;;;;;5071717;28;20025;-78
2021/05/23 00:20:36;;;;;;;9.23;5.97;;;461.70;2176.00;;;;;;5072330;28;20059;-78
2021/05/23 00:23:03;;;;;;;10.18;6.43;;;461.60;2176.00;;;;;;5072489;28;20054;-78
2021/05/23 00:25:29;;;;;;;8.63;6.10;;;461.60;2201.60;;;;;;5073734;28;20028;-79
2021/05/23 00:27:55;;;;;;;12.18;6.60;;;461.60;2201.60;;;;;;5072296;28;20037;-78
2021/05/23 00:30:21;;;;;;;9.85;6.05;;;461.60;2201.60;;;;;;5072616;28;20040;-78
2021/05/23 00:32:47;;;;;;;10.57;6.28;;;461.60;2201.60;;;;;;5072448;28;20136;-78
2021/05/23 00:35:13;;;;;;;7.47;5.88;;;461.60;2176.00;;;;;;5073584;28;20028;-78
2021/05/23 00:37:39;;;;;;;7.78;5.78;;;461.70;2176.00;;;;;;5072331;28;20035;-78
2021/05/23 00:40:06;;;;;;;6.95;5.70;;;461.70;2201.60;;;;;;5072453;28;20020;-78
2021/05/23 00:42:32;;;;;;;8.15;6.10;;;461.70;2201.60;;;;;;5072303;28;20028;-78
2021/05/23 00:44:58;;;;;;;8.18;5.38;;;461.70;2201.60;;;;;;5072160;28;20035;-78
2021/05/23 00:47:24;;;;;;;6.90;5.85;;;461.60;2201.60;;;;;;5073664;28;20024;-77
2021/05/23 00:49:50;;;;;;;8.55;5.95;;;461.60;2227.20;;;;;;5073011;28;20027;-78
2021/05/23 00:52:17;;;;;;;9.00;5.72;;;461.60;2227.20;;;;;;5073386;28;20096;-78
2021/05/23 00:54:42;;;;;;;9.57;5.90;;;461.60;2201.60;;;;;;5072074;28;20107;-78
2021/05/23 00:57:08;;;;;;;8.05;6.22;;;461.70;2201.60;;;;;;5072212;28;20925;-78
2021/05/23 00:59:34;;;;;;;8.73;5.72;;;461.70;2201.60;;;;;;5072375;28;20032;-78
2021/05/23 01:01:59;;;;;;;7.35;5.75;;;461.70;2201.60;;;;;;5071622;28;20037;-79
2021/05/23 01:04:25;;;;;;;10.85;6.20;;;461.70;2227.20;;;;;;5072148;28;20025;-78
2021/05/23 01:06:51;;;;;;;6.93;5.75;;;461.60;2227.20;;;;;;5072175;28;20032;-78
2021/05/23 01:09:17;;;;;;;11.57;6.70;;;461.60;2252.80;;;;;;5073254;28;20052;-78
2021/05/23 01:11:43;;;;;;;8.00;6.22;;;461.60;2252.80;;;;;;5072027;28;20036;-78
2021/05/23 01:14:16;;;;;;;7.10;4.97;;;461.60;2252.80;;;;;;5071789;28;20020;-77
2021/05/23 01:16:47;;;;;;;5.80;5.20;;;461.60;2252.80;;;;;;5071665;28;20054;-78
2021/05/23 01:19:28;;;;;;;8.15;6.13;;;461.60;2252.80;;;;;;5074393;28;20491;-78
2021/05/23 01:22:14;;;;;;;8.48;5.03;;;461.60;2252.80;;;;;;5075506;28;20028;-77
2021/05/23 01:24:55;;;;;;;8.65;6.18;;;461.60;2252.80;;;;;;5077024;28;20025;-77
2021/05/23 01:27:38;;;;;;;8.63;6.00;;;461.50;2252.80;;;;;;5076860;28;20032;-77
2021/05/23 01:30:10;;;;;;;7.80;7.03;;;461.50;2252.80;;;;;;5075738;28;20074;-77
2021/05/23 01:32:37;;;;;;;7.93;6.15;;;461.50;2252.80;;;;;;5074821;28;20071;-78
2021/05/23 01:35:11;;;;;;;10.95;6.75;;;461.50;2252.80;;;;;;5076876;28;20021;-78
2021/05/23 01:37:37;;;;;;;7.80;6.25;;;461.50;2252.80;;;;;;5077096;28;20107;-79
2021/05/23 01:40:04;;;;;;;9.60;6.68;;;461.50;2227.20;;;;;;5077053;28;20549;-78
2021/05/23 01:42:31;;;;;;;11.48;6.40;;;461.50;2252.80;;;;;;5059465;28;20029;-79
2021/05/23 01:44:57;;;;;;;10.50;7.88;;;461.50;2252.80;;;;;;5076865;28;20021;-80
2021/05/23 01:47:23;;;;;;;8.45;6.70;;;461.50;2252.80;;;;;;5075356;28;20069;-79
2021/05/23 01:49:49;;;;;;;9.85;7.03;;;461.40;2252.80;;;;;;5075715;28;20115;-79
2021/05/23 01:52:14;;;;;;;9.38;8.38;;;461.40;2278.40;;;;;;5075696;28;20048;-79
2021/05/23 01:54:40;;;;;;;17.58;9.30;;;461.40;2227.20;;;;;;5075370;28;20201;-78
2021/05/23 01:57:06;;;;;;;14.93;11.07;;;461.40;2227.20;;;;;;5076759;28;20025;-78
2021/05/23 01:59:32;;;;;;;20.27;10.88;;;461.50;2227.20;;;;;;5076073;28;20103;-78
2021/05/23 02:01:57;;;;;;;15.50;12.57;;;461.50;2227.20;;;;;;5075246;28;20025;-79
2021/05/23 02:04:24;;;;;;;15.20;10.95;;;461.50;2227.20;;;;;;5075382;28;20070;-78
2021/05/23 02:06:50;;;;;;;14.85;11.50;;;461.50;2227.20;;;;;;5075004;28;20024;-78
2021/05/23 02:09:16;;;;;;;25.05;11.88;;;461.40;2227.20;;;;;;5074913;28;20111;-78
2021/05/23 02:11:43;;;;;;;16.45;12.00;;;461.40;2227.20;;;;;;5074688;28;20121;-78
2021/05/23 02:14:10;;;;;;;13.07;11.77;;;461.40;2227.20;;;;;;5075397;28;20020;-79
2021/05/23 02:16:36;;;;;;;24.95;12.07;;;461.50;2252.80;;;;;;5076079;28;20111;-80
2021/05/23 02:19:02;;;;;;;13.32;10.55;;;461.30;2252.80;;;;;;5076588;28;20067;-79
2021/05/23 02:21:27;;;;;;;16.95;12.00;;;461.30;2252.80;;;;;;5076022;28;20024;-77
2021/05/23 02:23:56;;;;;;;16.77;12.20;;;461.30;2252.80;;;;;;5059116;28;20488;-78
2021/05/23 02:26:23;;;;;;;17.95;11.98;;;461.30;2252.80;;;;;;5075522;28;20040;-78
2021/05/23 02:28:50;;;;;;;14.25;12.75;;;461.30;2252.80;;;;;;5076844;28;20529;-78
2021/05/23 02:31:16;;;;;;;15.57;12.13;;;461.30;2252.80;;;;;;5075125;28;20020;-77
2021/05/23 02:33:41;;;;;;;12.30;11.00;;;461.20;2278.40;;;;;;5073724;28;20067;-78
2021/05/23 02:36:07;;;;;;;15.07;11.13;;;461.30;2278.40;;;;;;5075161;28;20032;-79
2021/05/23 02:38:34;;;;;;;14.90;10.70;;;461.20;2278.40;;;;;;5056977;28;20037;-79
2021/05/23 02:40:59;;;;;;;15.95;10.50;;;461.20;2278.40;;;;;;5074373;28;20115;-78
2021/05/23 02:43:25;;;;;;;13.85;8.70;;;461.30;2278.40;;;;;;5075758;28;20063;-78
2021/05/23 02:45:51;;;;;;;11.27;7.88;;;461.30;2252.80;;;;;;5073992;28;20032;-78
2021/05/23 02:48:17;;;;;;;11.30;9.50;;;461.20;2278.40;;;;;;5074255;28;20032;-78
2021/05/23 02:50:47;;;;;;;13.13;8.30;;;461.30;2278.40;;;;;;5073794;28;20123;-77
2021/05/23 02:53:14;;;;;;;9.77;7.70;;;461.30;2278.40;;;;;;5074128;28;20066;-78
2021/05/23 02:55:44;;;;;;;14.35;7.05;;;461.30;2252.80;;;;;;5075373;28;20031;-78
2021/05/23 02:58:11;;;;;;;7.95;6.70;;;461.30;2278.40;;;;;;5074527;28;20025;-77
2021/05/23 03:00:38;;;;;;;8.10;6.63;;;461.30;2278.40;;;;;;5075578;28;20435;-77
2021/05/23 03:03:04;;;;;;;7.40;6.38;;;461.30;2278.40;;;;;;5074875;28;20021;-78
2021/05/23 03:05:30;;;;;;;8.45;6.20;;;461.30;2278.40;;;;;;5073713;28;20035;-78
2021/05/23 03:07:56;;;;;;;6.65;5.95;;;461.30;2278.40;;;;;;5074906;28;20031;-78
2021/05/23 03:10:27;;;;;;;8.48;6.22;;;461.30;2304.00;;;;;;5074947;28;20024;-78
2021/05/23 03:12:53;;;;;;;;;;;461.30;2304.00;;;;;;5073803;28;20025;-78
2021/05/23 03:15:22;;;;;;;9.50;5.32;;;461.20;2304.00;;;;;;5074954;28;19904;-79
2021/05/23 03:17:48;;;;;;;9.88;6.72;;;461.20;2329.60;;;;;;5073805;28;20174;-79
2021/05/23 03:20:16;;;;;;;7.88;6.38;;;461.10;2329.60;;;;;;5074783;28;20029;-79
2021/05/23 03:22:43;;;;;;;8.88;7.00;;;461.20;2329.60;;;;;;5074812;28;20473;-79
2021/05/23 03:28:31;;;;;;;8.25;6.82;;;461.00;2329.60;;;;;;5074744;28;20048;-79
2021/05/23 03:30:56;;;;;;;7.40;6.70;;;461.00;2355.20;;;;;;5073376;28;20025;-79
2021/05/23 03:33:22;;;;;;;7.18;6.20;;;461.00;2355.20;;;;;;5074436;28;20427;-78
2021/05/23 03:35:48;;;;;;;8.50;7.15;;;461.00;2355.20;;;;;;5074763;28;20020;-79
2021/05/23 03:38:14;;;;;;;8.32;6.57;;;461.00;2329.60;;;;;;5073254;28;20430;-79
2021/05/23 03:40:40;;;;;;;13.35;7.45;;;461.10;2329.60;;;;;;5072534;28;20037;-78
2021/05/23 03:43:07;;;;;;;8.13;5.68;;;461.20;2329.60;;;;;;5073164;28;20036;-78
2021/05/23 03:45:33;;;;;;;10.07;6.85;;;461.10;2329.60;;;;;;5074240;28;20472;-78
2021/05/23 03:47:59;;;;;;;11.23;7.22;;;461.20;2329.60;;;;;;5074322;28;20025;-78
2021/05/23 03:50:25;;;;;;;12.30;6.47;;;461.20;2329.60;;;;;;5074522;28;20483;-78
2021/05/23 03:52:54;;;;;;;9.40;6.90;;;461.20;2355.20;;;;;;5072962;28;20086;-78
2021/05/23 03:55:20;;;;;;;13.27;7.68;;;461.20;2355.20;;;;;;5072503;28;20082;-77
2021/05/23 03:57:46;;;;;;;7.95;6.78;;;461.20;2355.20;;;;;;5072389;28;20127;-77
2021/05/23 04:00:14;;;;;;;11.98;7.32;;;461.20;2355.20;;;;;;5073712;28;20440;-77
2021/05/23 04:02:41;;;;;;;13.90;9.05;;;461.30;2355.20;;;;;;5072391;28;20400;-78
2021/05/23 04:05:07;;;;;;;11.15;8.60;;;461.30;2355.20;;;;;;5073785;28;20035;-78
2021/05/23 04:07:33;;;;;;;10.25;8.88;;;461.30;2329.60;;;;;;5072462;28;20369;-78
2021/05/23 04:09:59;;;;;;;15.07;10.70;;;461.40;2329.60;;;;;;5073915;28;20017;-78
2021/05/23 04:12:38;;;;;;;10.10;9.10;;;461.40;2304.00;;;;;;5074173;28;20361;-78
2021/05/23 04:15:06;;;;;;;12.98;9.10;;;461.40;2304.00;;;;;;5073961;28;20357;-78
2021/05/23 04:17:31;;;;;;;10.80;8.80;;;461.50;2278.40;;;;;;5073842;28;20419;-79
2021/05/23 04:19:57;;;;;;;16.08;8.45;;;461.50;2278.40;;;;;;5073997;28;20024;-78
2021/05/23 04:22:23;;;;;;;13.43;9.63;;;461.40;2278.40;;;;;;5072955;28;20043;-78
2021/05/23 04:24:49;;;;;;;15.68;9.27;;;461.40;2227.20;;;;;;5073768;28;20024;-77
2021/05/23 04:27:15;;;;;;;11.70;8.13;;;461.50;2252.80;;;;;;5072291;28;20039;-77
2021/05/23 04:29:41;;;;;;;11.38;8.65;;;461.50;2227.20;;;;;;5071996;28;20036;-77
2021/05/23 04:32:07;;;;;;;12.35;8.30;;;461.60;2201.60;;;;;;5073559;28;20041;-78
2021/05/23 04:34:37;;;;;;;15.10;8.60;;;461.50;2201.60;;;;;;5073524;28;20032;-77
2021/05/23 04:37:06;;;;;;;14.80;8.88;;;461.60;2201.60;;;;;;5072351;28;20032;-78
2021/05/23 04:39:33;;;;;;;9.07;8.18;;;461.60;2201.60;;;;;;5072410;28;20472;-78
2021/05/23 04:41:59;;;;;;;8.85;7.20;;;461.60;2227.20;;;;;;5073596;28;20119;-78
2021/05/23 04:44:24;;;;;;;12.30;7.88;;;461.50;2252.80;;;;;;5072289;28;20028;-78
2021/05/23 04:46:50;;;;;;;10.68;7.95;;;461.50;2227.20;;;;;;5072247;28;20029;-78
2021/05/23 04:49:16;;;;;;;19.67;9.80;;;461.60;2227.20;;;;;;5071961;28;20455;-79
2021/05/23 04:51:42;;;;;;;7.55;6.85;;;461.60;2201.60;;;;;;5073453;28;20060;-79
2021/05/23 04:54:08;;;;;;;11.55;8.38;;;461.70;2227.20;;;;;;5078957;28;20048;-78
2021/05/23 04:56:34;;;;;;;10.07;8.00;;;486.40;2227.20;;;;;;5079990;28;20490;-78
2021/05/23 04:58:59;;;;;;;10.52;8.18;;;486.50;2176.00;;;;;;5079947;28;20024;-78
2021/05/23 05:01:25;;;;;;;7.65;6.90;;;486.60;2124.80;;;;;;5080049;28;20537;-79
2021/05/23 05:03:51;;;;;;;8.57;7.05;;;486.60;2124.80;;;;;;5078895;28;20024;-78
2021/05/23 05:06:16;;;;;;;9.93;7.03;;;486.60;2124.80;;;;;;5077423;28;20032;-77
2021/05/23 05:08:42;;;;;;;11.15;6.93;;;486.70;2099.20;;;;;;5078715;28;20055;-77
2021/05/23 05:11:08;;;;;;;12.57;7.15;;;486.70;2099.20;;;;;;5079966;28;20020;-78
2021/05/23 05:13:33;;;;;;;9.15;7.18;;;486.70;2099.20;;;;;;5078532;28;20556;-78
2021/05/23 05:15:59;;;;;;;9.15;7.45;;;486.70;2099.20;;;;;;5079853;28;20021;-78
2021/05/23 05:18:25;;;;;;;12.70;7.57;;;486.80;2099.20;;;;;;5078656;28;20392;-78
2021/05/23 05:20:53;;;;;;;8.45;7.55;;;486.90;2099.20;;;;;;5080194;28;20031;-78
2021/05/23 05:23:19;;;;;;;9.15;7.18;;;486.90;2099.20;;;;;;5078399;28;20029;-78
2021/05/23 05:25:44;;;;;;;13.60;7.43;;;487.00;2099.20;;;;;;5078482;28;20035;-79
2021/05/23 05:28:10;;;;;;;7.40;6.55;;;487.00;2099.20;;;;;;5079607;28;20035;-78
2021/05/23 05:30:36;;;;;;;9.75;8.23;;;487.00;2099.20;;;;;;5078698;28;20024;-78
2021/05/23 05:33:01;;;;;;;11.93;6.72;;;487.00;2124.80;;;;;;5078017;28;20051;-79
2021/05/23 05:35:27;;;;;;;9.52;7.07;;;487.10;2099.20;;;;;;5078809;28;20043;-78
2021/05/23 05:37:53;;;;;;;10.80;6.63;;;487.10;2073.60;;;;;;5076949;28;20030;-79
2021/05/23 05:40:20;;;;;;;10.65;6.55;;;487.20;2073.60;;;;;;5078408;28;20102;-79
2021/05/23 05:42:46;;;;;;;9.77;6.07;;;487.20;2099.20;;;;;;5078047;28;20036;-78
2021/05/23 05:45:12;;;;;;;8.48;6.45;;;487.20;2073.60;;;;;;5078173;28;20604;-78
2021/05/23 05:47:40;;;;;;;8.23;6.20;;;487.30;2073.60;;;;;;5077451;28;20029;-79
2021/05/23 05:50:07;;;;;;;6.18;5.68;;;512.00;2048.00;;;;;;5079536;28;20028;-78
2021/05/23 05:52:32;;;;;;;10.40;6.60;;;512.00;2048.00;;;;;;5078111;28;20020;-79
2021/05/23 05:54:58;;;;;;;7.85;5.70;;;512.10;2048.00;;;;;;5079478;28;20044;-78
2021/05/23 05:57:24;;;;;;;8.55;5.68;;;512.10;2022.40;;;;;;5078126;28;20063;-79
2021/05/23 05:59:50;;;;;;;7.10;5.80;;;512.20;2022.40;;;;;;5079111;28;20029;-79
2021/05/23 06:02:16;;;;;;;7.60;5.00;;;512.30;2022.40;;;;;;5079423;28;20021;-79
2021/05/23 06:04:42;;;;;;;8.98;5.60;;;512.40;1996.80;;;;;;5075388;28;20047;-79
2021/05/23 06:07:08;;;;;;;7.05;5.35;;;512.50;1996.80;;;;;;5074571;28;20037;-79
2021/05/23 06:09:33;;;;;;;9.75;5.32;;;512.50;1996.80;;;;;;5076884;28;20066;-78
2021/05/23 06:11:59;;;;;;;4.90;3.22;;;512.70;1971.20;;;;;;5076030;28;20404;-78
2021/05/23 06:14:25;;;;;;;11.40;5.32;;;512.80;1996.80;;;;;;5075485;28;20071;-78
2021/05/23 06:16:51;;;;;;;8.13;5.40;;;512.80;1971.20;;;;;;5074220;28;20032;-80
2021/05/23 06:19:16;;;;;;;8.27;4.82;;;512.90;1996.80;;;;;;5074765;28;20055;-76
2021/05/23 06:21:42;;;;;;;14.13;3.90;;;537.60;1945.60;;;;;;5075606;28;20143;-78
2021/05/23 06:24:08;;;;;;;7.50;3.85;;;537.70;1945.60;;;;;;5075899;28;20024;-77
2021/05/23 06:26:34;;;;;;;7.70;3.92;;;537.80;1945.60;;;;;;5074864;28;20481;-78
2021/05/23 06:28:59;;;;;;;5.30;3.50;;;537.80;1945.60;;;;;;5078864;28;20033;-79
2021/05/23 06:31:26;;;;;;;5.53;3.95;;;537.90;1920.00;;;;;;5076557;28;20033;-77
2021/05/23 06:33:52;;;;;;;8.93;3.75;;;538.00;1894.40;;;;;;5074728;28;20142;-77
2021/05/23 06:36:18;;;;;;;6.03;3.55;;;538.10;1920.00;;;;;;5075818;28;20118;-78
2021/05/23 06:38:44;;;;;;;8.20;3.67;;;538.10;1894.40;;;;;;5073474;28;20028;-78
2021/05/23 06:41:09;;;;;;;3.30;2.92;;;538.20;1868.80;;;;;;5073769;28;20039;-78
2021/05/23 06:43:35;;;;;;;6.65;3.45;;;538.20;1868.80;;;;;;5074425;28;20025;-80
2021/05/23 06:46:01;;;;;;;8.55;3.03;;;538.20;1843.20;;;;;;5075222;28;20051;-79
2021/05/23 06:48:26;;;;;;;6.18;3.13;;;538.20;1868.80;;;;;;5074216;28;20028;-81
2021/05/23 06:50:52;;;;;;;8.95;2.90;;;538.40;1843.20;;;;;;5073827;28;20074;-79
2021/05/23 06:53:18;;;;;;;6.95;2.22;;;538.50;1843.20;;;;;;5075409;28;20119;-80
2021/05/23 06:55:44;;;;;;;7.28;2.25;;;538.50;1766.40;;;;;;5073413;28;20104;-79
2021/05/23 06:58:10;;;;;;;10.43;2.33;;;538.50;1817.60;;;;;;5054295;28;20546;-79
2021/05/23 07:00:35;;;;;;;6.63;2.13;;;563.20;1792.00;;;;;;5089554;28;20039;-79
2021/05/23 07:03:01;;;;;;;7.60;2.00;;;563.30;1792.00;;;;;;5073817;28;20024;-77
2021/05/23 07:05:27;;;;;;;12.90;3.00;;;563.30;1792.00;;;;;;5075215;28;20028;-78
2021/05/23 07:07:53;;;;;;;7.88;2.33;;;563.30;1817.60;;;;;;5073819;28;20144;-74
2021/05/23 07:10:19;;;;;;;12.07;3.40;;;563.40;1817.60;;;;;;5073858;28;20052;-79
2021/05/23 07:12:44;;;;;;;16.40;3.13;;;563.40;1817.60;;;;;;5072945;28;20361;-75
2021/05/23 07:15:11;;;;;;;5.28;2.42;;;563.50;1817.60;;;;;;5074997;28;20059;-74
2021/05/23 07:17:37;;;;;;;9.93;3.15;;;563.50;1817.60;;;;;;5072707;28;20025;-74
2021/05/23 07:20:05;;;;;;;16.63;2.20;;;563.60;1817.60;;;;;;5074199;28;20044;-74
2021/05/23 07:22:31;;;;;;;31.38;3.42;;;563.70;1766.40;;;;;;5074145;28;20025;-73
2021/05/23 07:24:57;;;;;;;23.30;4.05;;;563.70;1715.20;;;;;;5073966;28;20028;-72
2021/05/23 07:27:22;;;;;;;46.80;6.55;;;563.80;1766.40;;;;;;5073600;28;20400;-72
2021/05/23 07:29:48;;;;;;;18.52;3.92;;;563.80;1740.80;;;;;;5073767;28;20025;-73
2021/05/23 07:32:14;;;;;;;86.68;9.48;;;563.80;1740.80;;;;;;5072236;28;20439;-72
2021/05/23 07:34:40;;;;;;;14.77;2.42;;;563.90;1740.80;;;;;;5073174;28;20472;-72
2021/05/23 07:37:05;;;;;;;23.17;3.75;;;564.00;1740.80;;;;;;5073452;28;20016;-72
2021/05/23 07:39:31;;;;;;;21.58;3.00;;;564.10;1689.60;;;;;;5072444;28;20492;-72
2021/05/23 07:41:57;;;;;;;12.38;2.35;;;564.10;1740.80;;;;;;5073656;28;20440;-72
2021/05/23 07:44:23;;;;;;;23.48;2.58;;;588.80;1715.20;;;;;;5071811;28;20025;-72
2021/05/23 07:46:48;;;;;;;6.35;1.92;;;588.90;1740.80;;;;;;5073265;28;20100;-73
2021/05/23 07:49:16;;;;;;;13.27;1.73;;;588.90;1715.20;;;;;;5073244;28;20096;-72
2021/05/23 07:51:42;;;;;;;6.95;1.60;;;589.00;1740.80;;;;;;5072887;28;20492;-72
2021/05/23 07:54:08;;;;;;;103.47;8.55;;;589.00;1689.60;;;;;;5073118;28;20031;-71
2021/05/23 07:56:34;;;;;;;243.18;17.80;;;589.10;1638.40;;;;;;5072107;28;20104;-72
2021/05/23 07:59:00;;;;;;;376.73;31.05;;;589.20;1638.40;;;;;;5073173;28;20021;-71
2021/05/23 08:01:25;;;;;;;176.77;17.58;;;589.20;1587.20;;;;;;5072022;28;20025;-71
2021/05/23 08:03:51;;;;;;;412.60;40.03;;;589.20;1587.20;;;;;;5073235;28;20468;-71
2021/05/23 08:06:18;;;;;;;171.70;15.55;;;589.30;1587.20;;;;;;5073066;28;20105;-72
2021/05/23 08:08:44;;;;;;;120.68;9.65;;;589.40;1510.40;;;;;;5073335;28;20020;-72
2021/05/23 08:11:10;;;;;;;39.50;3.17;;;589.40;1587.20;;;;;;5071856;28;20032;-72
2021/05/23 08:13:36;;;;;;;12.65;1.20;;;589.50;1612.80;;;;;;5070829;28;20043;-72
2021/05/23 08:16:03;;;;;;;20.85;3.60;;;589.50;1561.60;;;;;;5072945;28;20392;-72
2021/05/23 08:18:29;;;;;;;14.10;1.60;;;589.60;1587.20;;;;;;5072741;28;20024;-73
2021/05/23 08:20:56;;;;;;;6.45;0.85;;;589.70;1561.60;;;;;;5074451;28;20365;-72
2021/05/23 08:23:24;;;;;;;9.68;1.13;;;589.70;1561.60;;;;;;5074348;28;20103;-72
2021/05/23 08:25:50;;;;;;;5.18;0.85;;;614.40;1536.00;;;;;;5073230;28;20051;-71
2021/05/23 08:28:16;;;;;;;20.67;2.60;;;614.50;1484.80;;;;;;5079622;28;20036;-72
2021/05/23 08:30:41;;;;;;;18.50;1.75;;;614.50;1484.80;;;;;;5073507;28;20047;-72
2021/05/23 08:33:08;;;;;;;4.53;0.90;;;614.50;1484.80;;;;;;5079906;28;20584;-72
2021/05/23 08:35:34;;;;;;;10.65;1.40;;;614.50;1484.80;;;;;;5092949;28;20450;-72
2021/05/23 08:38:00;;;;;;;7.57;0.73;;;614.50;1510.40;;;;;;5092933;28;20043;-72
2021/05/23 08:40:25;;;;;;;6.40;1.15;;;614.60;1536.00;;;;;;5091347;28;20530;-72
2021/05/23 08:42:51;;;;;;;6.60;1.10;;;614.70;1484.80;;;;;;5091333;28;20038;-72
2021/05/23 08:45:17;;;;;;;70.28;5.53;;;614.80;1510.40;;;;;;5092626;28;20032;-71
2021/05/23 08:47:45;;;;;;;17.25;2.65;;;614.80;1536.00;;;;;;5092370;28;20035;-72
2021/05/23 08:50:14;;;;;;;9.30;0.90;;;614.90;1484.80;;;;;;5093147;28;20028;-78
2021/05/23 08:52:40;;;;;;;28.93;1.87;;;615.00;1510.40;;;;;;5092853;28;20040;-72
2021/05/23 08:55:06;;;;;;;4.38;1.13;;;615.00;1510.40;;;;;;5091854;28;20452;-73
2021/05/23 08:57:34;;;;;;;1.77;0.70;;;615.00;1459.20;;;;;;5093184;28;20036;-72
2021/05/23 08:59:59;;;;;;;6.35;1.30;;;615.10;1433.60;;;;;;5093226;28;20101;-71
2021/05/23 09:02:26;;;;;;;2.65;0.60;;;615.20;1459.20;;;;;;5092603;28;20506;-72
2021/05/23 09:04:52;;;;;;;6.25;1.05;;;615.20;1459.20;;;;;;5092538;28;20073;-72
2021/05/23 09:07:18;;;;;;;3.22;1.10;;;615.30;1382.40;;;;;;5091006;28;20127;-72
2021/05/23 09:09:47;;;;;;;6.10;0.57;;;615.20;1382.40;;;;;;5092385;28;20028;-72
2021/05/23 09:12:14;;;;;;;1.38;0.63;;;640.00;1408.00;;;;;;5091058;28;20028;-72
2021/05/23 09:14:47;;;;;;;2.35;0.95;;;640.00;1408.00;;;;;;5092437;28;20028;-72
2021/05/23 09:17:21;;;;;;;4.75;1.23;;;640.10;1433.60;;;;;;5092091;28;20483;-72
2021/05/23 09:19:48;;;;;;;8.77;1.05;;;640.10;1408.00;;;;;;5092393;28;20040;-71
2021/05/23 09:22:18;;;;;;;4.55;0.88;;;640.10;1356.80;;;;;;5091037;28;20138;-72
2021/05/23 09:24:59;;;;;;;2.42;0.60;;;640.10;1382.40;;;;;;5090865;28;20024;-72
2021/05/23 09:27:33;;;;;;;3.85;0.80;;;640.20;1382.40;;;;;;5090883;28;20032;-72
2021/05/23 09:30:16;;;;;;;2.35;1.35;;;640.20;1382.40;;;;;;5092142;28;20024;-72
2021/05/23 09:32:44;;;;;;;8.82;1.08;;;640.20;1331.20;;;;;;5092165;28;20060;-72
2021/05/23 09:35:11;;;;;;;5.53;0.63;;;640.30;1331.20;;;;;;5092646;28;20107;-72
2021/05/23 09:37:37;;;;;;;7.25;1.27;;;640.40;1331.20;;;;;;5092339;28;20034;-72
2021/05/23 09:40:14;;;;;;;3.88;0.95;;;640.30;1305.60;;;;;;5093514;28;20571;-72
2021/05/23 09:42:48;;;;;;;1.73;0.75;;;640.40;1356.80;;;;;;5095980;28;20406;-72
2021/05/23 09:45:15;;;;;;;10.93;1.00;;;640.40;1305.60;;;;;;5094736;28;20040;-73
2021/05/23 09:47:59;;;;;;;18.15;2.05;;;640.50;1356.80;;;;;;5095867;28;20035;-73
2021/05/23 09:50:52;;;;;;;5.07;1.35;;;640.60;1331.20;;;;;;5097437;28;20102;-72
2021/05/23 09:53:28;;;;;;;6.43;0.88;;;640.60;1305.60;;;;;;5092784;28;20065;-72
2021/05/23 09:56:04;;;;;;;2.63;0.90;;;640.70;1331.20;;;;;;5095894;28;20017;-72
2021/05/23 09:58:36;;;;;;;7.10;1.27;;;640.60;1254.40;;;;;;5095858;28;20482;-72
2021/05/23 10:01:04;;;;;;;4.18;0.90;;;640.70;1254.40;;;;;;5095902;28;20372;-72
2021/05/23 10:03:32;;;;;;;3.40;0.65;;;640.80;1280.00;;;;;;5094386;28;20078;-72
2021/05/23 10:05:59;;;;;;;1.60;0.60;;;640.80;1280.00;;;;;;5095189;28;20119;-72
2021/05/23 10:08:25;;;;;;;7.15;1.00;;;640.90;1280.00;;;;;;5096211;28;20020;-76
2021/05/23 10:10:53;;;;;;;7.85;1.20;;;640.90;1203.20;;;;;;5096533;28;20138;-76
2021/05/23 10:13:20;;;;;;;8.18;0.98;;;640.90;1203.20;;;;;;5096520;28;20044;-77
2021/05/23 10:15:46;;;;;;;6.95;1.05;;;665.60;1203.20;;;;;;5096334;28;20813;-77
2021/05/23 10:18:12;;;;;;;5.68;0.80;;;665.60;1254.40;;;;;;5094932;28;20058;-79
2021/05/23 10:20:39;;;;;;;3.10;1.27;;;665.70;1203.20;;;;;;5095137;28;20028;-76
2021/05/23 10:23:17;;;;;;;2.20;0.57;;;665.70;1203.20;;;;;;5094934;28;20020;-76
2021/05/23 10:25:49;;;;;;;4.00;1.10;;;665.80;1228.80;;;;;;5096039;28;20059;-79
2021/05/23 10:28:17;;;;;;;2.72;0.80;;;665.90;1203.20;;;;;;5096214;28;20020;-78
2021/05/23 10:30:51;;;;;;;2.00;0.77;;;665.90;1203.20;;;;;;5096959;28;20431;-78
2021/05/23 10:33:19;;;;;;;2.58;0.60;;;665.90;1177.60;;;;;;5095946;28;20123;-78
2021/05/23 10:35:46;;;;;;;8.90;1.52;;;665.90;1203.20;;;;;;5096015;28;20471;-79
2021/05/23 10:38:15;;;;;;;4.95;1.35;;;666.00;1203.20;;;;;;5094845;28;20372;-77
2021/05/23 10:41:04;;;;;;;2.85;0.93;;;666.10;1203.20;;;;;;5094296;28;20032;-80
2021/05/23 10:43:32;;;;;;;7.57;1.10;;;666.10;1203.20;;;;;;5095813;28;20022;-78
2021/05/23 10:46:10;;;;;;;9.68;1.17;;;666.10;1254.40;;;;;;5095760;28;20380;-77
2021/05/23 10:48:37;;;;;;;6.47;1.10;;;666.20;1228.80;;;;;;5093722;28;20024;-78
2021/05/23 10:51:17;;;;;;;1.85;0.60;;;666.30;1254.40;;;;;;5095020;28;20020;-77
2021/05/23 10:53:43;;;;;;;1.30;1.20;;;666.20;1203.20;;;;;;5094311;28;20024;-78
2021/05/23 10:56:26;;;;;;;0.80;0.43;;;666.30;1100.80;;;;;;5095742;28;20020;-79
2021/05/23 10:58:59;;;;;;;6.78;1.00;;;666.20;1126.40;;;;;;5094093;28;20028;-78
2021/05/23 11:01:46;;;;;;;3.90;0.95;;;666.30;1152.00;;;;;;5095392;28;20472;-78
2021/05/23 11:04:22;;;;;;;2.95;0.73;;;666.40;1126.40;;;;;;5088682;28;20032;-78
2021/05/23 11:06:48;;;;;;;3.08;1.10;;;666.40;1177.60;;;;;;5095438;28;20020;-78
2021/05/23 11:09:23;;;;;;;3.30;0.70;;;666.50;1100.80;;;;;;5095161;28;20089;-77
2021/05/23 11:11:49;;;;;;;4.10;1.02;;;691.20;1126.40;;;;;;5095166;28;20096;-78
2021/05/23 11:14:34;;;;;;;3.35;1.05;;;691.20;1126.40;;;;;;5095249;28;20433;-77
2021/05/23 11:17:00;;;;;;;5.68;1.20;;;691.30;1100.80;;;;;;5093709;28;20391;-78
2021/05/23 11:19:30;;;;;;;3.13;1.00;;;691.40;1100.80;;;;;;5093705;28;20032;-77
2021/05/23 11:22:00;;;;;;;3.72;0.80;;;691.40;1075.20;;;;;;5088920;28;20032;-77
2021/05/23 11:24:34;;;;;;;7.13;1.27;;;691.40;1100.80;;;;;;5074667;28;20391;-77
2021/05/23 11:27:16;;;;;;;3.83;1.17;;;691.50;1100.80;;;;;;5075014;28;20536;-78
2021/05/23 11:29:52;;;;;;;2.13;0.80;;;691.60;1049.60;;;;;;5073155;28;20450;-77
2021/05/23 11:32:18;;;;;;;1.08;0.88;;;691.60;1075.20;;;;;;5073993;28;20041;-77
2021/05/23 11:34:44;;;;;;;3.33;0.75;;;691.60;1024.00;;;;;;5073511;28;20111;-78
2021/05/23 11:37:11;;;;;;;2.45;0.93;;;691.70;1075.20;;;;;;5074461;28;20024;-78
2021/05/23 11:39:37;;;;;;;6.60;1.35;;;691.80;1075.20;;;;;;5073433;28;20107;-78
2021/05/23 11:42:05;;;;;;;2.65;1.10;;;691.80;998.40;;;;;;5074349;28;20036;-78
2021/05/23 11:44:36;;;;;;;3.22;2.00;;;691.80;998.40;;;;;;5073694;28;20051;-78
2021/05/23 11:47:02;;;;;;;5.70;1.10;;;691.80;998.40;;;;;;5074168;28;20028;-77
2021/05/23 11:49:30;;;;;;;1.60;0.95;;;691.80;998.40;;;;;;5072641;28;20041;-78
2021/05/23 11:52:01;;;;;;;2.40;0.70;;;691.90;972.80;;;;;;5072571;28;20054;-79
2021/05/23 11:54:26;;;;;;;3.10;1.60;;;691.80;972.80;;;;;;5074160;28;20021;-78
2021/05/23 11:56:52;;;;;;;7.45;0.80;;;691.90;998.40;;;;;;5072922;28;20031;-78
2021/05/23 11:59:18;;;;;;;5.20;0.90;;;692.00;998.40;;;;;;5072363;28;20072;-78
2021/05/23 12:01:56;;;;;;;3.40;0.70;;;692.10;1024.00;;;;;;5073645;28;20032;-78
2021/05/23 12:04:22;;;;;;;2.58;1.10;;;692.10;947.20;;;;;;5073544;28;20028;-78
2021/05/23 12:06:50;;;;;;;1.38;1.08;;;716.90;998.40;;;;;;5072571;28;20024;-78
2021/05/23 12:09:18;;;;;;;5.65;2.13;;;716.90;972.80;;;;;;5073789;28;20021;-78
2021/05/23 12:11:55;;;;;;;1.88;0.70;;;717.00;947.20;;;;;;5072420;28;20020;-79
2021/05/23 12:14:25;;;;;;;1.92;1.05;;;717.00;972.80;;;;;;5072748;28;20066;-78
2021/05/23 12:17:13;;;;;;;3.75;0.93;;;717.10;998.40;;;;;;5071063;28;20077;-77
2021/05/23 12:19:54;;;;;;;4.25;0.60;;;717.20;998.40;;;;;;5071306;28;20024;-77